createdAt,value
2022-12-03T00:00:59.139Z,83.25
2022-12-03T00:06:00.447Z,83.40
2022-12-03T00:11:01.553Z,83.08
2022-12-03T00:16:02.819Z,83.15
2022-12-03T00:21:04.132Z,83.39
2022-12-03T00:26:05.333Z,83.27
2022-12-03T00:31:06.472Z,83.16
2022-12-03T00:36:08.219Z,83.14
2022-12-03T00:41:09.265Z,83.12
2022-12-03T00:46:11.086Z,83.30
2022-12-03T00:51:12.219Z,83.31
2022-12-03T00:56:13.555Z,83.28
2022-12-03T01:01:15.017Z,83.23
2022-12-03T01:06:16.467Z,83.54
2022-12-03T01:11:36.373Z,83.44
2022-12-03T01:16:38.953Z,83.56
2022-12-03T01:21:40.789Z,83.84
2022-12-03T01:26:42.147Z,84.30
2022-12-03T01:32:02.064Z,84.49
2022-12-03T01:37:03.573Z,84.42
2022-12-03T01:42:06.179Z,84.85
2022-12-03T01:47:17.446Z,84.96
2022-12-03T01:52:23.466Z,85.00
2022-12-03T01:57:37.030Z,85.16
2022-12-03T02:02:38.650Z,85.21
2022-12-03T02:07:40.248Z,85.41
2022-12-03T02:12:46.608Z,85.59
2022-12-03T02:17:48.059Z,85.64
2022-12-03T02:23:13.309Z,85.78
2022-12-03T02:28:14.476Z,85.89
2022-12-03T02:33:15.907Z,85.90
2022-12-03T02:38:20.817Z,86.11
2022-12-03T02:43:22.942Z,86.11
2022-12-03T02:48:35.010Z,86.03
2022-12-03T02:53:43.682Z,85.91
2022-12-03T02:58:47.677Z,85.90
2022-12-03T03:03:50.388Z,86.27
2022-12-03T03:08:51.939Z,86.35
2022-12-03T03:13:53.338Z,86.33
2022-12-03T03:18:54.723Z,86.31
2022-12-03T03:23:55.785Z,86.22
2022-12-03T03:28:59.206Z,86.29
2022-12-03T03:34:00.470Z,86.33
2022-12-03T03:39:04.188Z,86.36
2022-12-03T03:44:07.219Z,86.55
2022-12-03T03:49:09.814Z,86.48
2022-12-03T03:54:11.760Z,86.30
2022-12-03T03:59:13.867Z,86.43
2022-12-03T04:04:20.960Z,86.26
2022-12-03T04:09:22.083Z,86.32
2022-12-03T04:14:23.217Z,86.06
2022-12-03T04:19:24.629Z,86.07
2022-12-03T04:24:25.665Z,86.26
2022-12-03T04:29:26.967Z,86.40
2022-12-03T04:34:46.938Z,86.53
2022-12-03T04:39:48.165Z,86.44
2022-12-03T04:44:49.445Z,86.44
2022-12-03T04:49:51.248Z,86.57
2022-12-03T04:54:52.786Z,86.41
2022-12-03T04:59:54.095Z,86.55
2022-12-03T05:04:55.380Z,86.53
2022-12-03T05:09:57.085Z,86.71
2022-12-03T05:14:58.436Z,86.94
2022-12-03T05:20:18.338Z,87.06
2022-12-03T05:25:19.622Z,86.96
2022-12-03T05:30:21.794Z,87.09
2022-12-03T05:35:23.373Z,87.20
2022-12-03T05:40:24.932Z,87.30
2022-12-03T05:45:27.823Z,87.41
2022-12-03T05:50:33.091Z,87.48
2022-12-03T05:55:34.373Z,87.57
2022-12-03T06:00:42.740Z,87.62
2022-12-03T06:05:45.322Z,87.77
2022-12-03T06:10:46.744Z,87.80
2022-12-03T06:15:47.854Z,87.72
2022-12-03T06:20:49.498Z,87.67
2022-12-03T06:25:50.557Z,87.64
2022-12-03T06:30:51.607Z,87.62
2022-12-03T06:35:52.902Z,87.69
2022-12-03T06:40:53.887Z,87.71
2022-12-03T06:45:54.966Z,87.78
2022-12-03T06:50:55.982Z,87.72
2022-12-03T06:55:57.400Z,87.74
2022-12-03T07:00:58.542Z,87.41
2022-12-03T07:05:59.658Z,87.48
2022-12-03T07:11:00.789Z,87.43
2022-12-03T07:16:02.003Z,87.43
2022-12-03T07:21:03.200Z,87.50
2022-12-03T07:26:04.925Z,87.28
2022-12-03T07:31:06.063Z,86.99
2022-12-03T07:36:08.894Z,86.68
2022-12-03T07:41:10.074Z,86.70
2022-12-03T07:46:11.325Z,86.97
2022-12-03T07:51:15.256Z,86.87
2022-12-03T07:56:16.997Z,87.05
2022-12-03T08:01:18.202Z,87.09
2022-12-03T08:06:19.500Z,87.02
2022-12-03T08:11:20.599Z,86.84
2022-12-03T08:16:22.047Z,86.76
2022-12-03T08:21:23.276Z,86.80
2022-12-03T08:26:25.576Z,86.77
2022-12-03T08:31:33.671Z,86.84
2022-12-03T08:36:35.705Z,86.65
2022-12-03T08:41:54.730Z,86.73
2022-12-03T08:47:18.961Z,86.93
2022-12-03T08:52:22.123Z,86.88
2022-12-03T08:57:30.849Z,86.69
2022-12-03T09:02:33.619Z,86.39
2022-12-03T09:07:34.901Z,85.60
2022-12-03T09:12:36.183Z,85.61
2022-12-03T09:17:37.347Z,85.36
2022-12-03T09:22:38.581Z,85.33
2022-12-03T09:27:40.749Z,85.47
2022-12-03T09:32:42.137Z,85.66
2022-12-03T09:37:43.268Z,85.93
2022-12-03T09:42:45.101Z,86.07
2022-12-03T09:47:48.737Z,85.62
2022-12-03T09:52:54.037Z,85.06
2022-12-03T09:57:56.598Z,85.05
2022-12-03T10:03:02.089Z,84.91
2022-12-03T10:08:06.143Z,84.81
2022-12-03T10:13:11.970Z,84.73
2022-12-03T10:18:20.822Z,84.62
2022-12-03T10:23:28.094Z,84.75
2022-12-03T10:28:38.466Z,84.86
2022-12-03T10:33:46.421Z,84.56
2022-12-03T10:39:07.042Z,84.30
2022-12-03T10:44:21.325Z,84.21
2022-12-03T10:49:22.906Z,83.87
2022-12-03T10:54:25.379Z,83.75
2022-12-03T10:59:33.202Z,83.82
2022-12-03T11:04:36.081Z,83.80
2022-12-03T11:09:38.291Z,84.31
2022-12-03T11:15:05.436Z,84.36
2022-12-03T11:20:29.694Z,84.47
2022-12-03T11:25:49.598Z,85.02
2022-12-03T11:30:50.700Z,85.25
2022-12-03T11:36:12.002Z,85.05
2022-12-03T11:41:14.503Z,84.99
2022-12-03T11:46:15.642Z,84.95
2022-12-03T11:51:20.603Z,85.32
2022-12-03T11:56:28.436Z,85.55
2022-12-03T12:01:38.606Z,85.69
2022-12-03T12:06:42.667Z,85.67
2022-12-03T12:11:43.808Z,85.52
2022-12-03T12:16:49.874Z,85.12
2022-12-03T12:21:52.998Z,85.17
2022-12-03T12:26:55.478Z,85.33
2022-12-03T12:32:08.207Z,85.36
2022-12-03T12:37:28.117Z,85.33
2022-12-03T12:42:30.895Z,85.04
2022-12-03T12:47:38.089Z,84.94
2022-12-03T12:52:50.833Z,85.14
2022-12-03T12:57:52.389Z,85.11
2022-12-03T13:02:59.244Z,84.66
2022-12-03T13:08:02.742Z,83.98
2022-12-03T13:13:32.041Z,83.29
2022-12-03T13:18:36.140Z,82.93
2022-12-03T13:23:38.638Z,82.41
2022-12-03T13:28:40.993Z,82.11
2022-12-03T13:33:42.280Z,81.84
2022-12-03T13:38:47.160Z,82.03
2022-12-03T13:43:49.354Z,82.59
2022-12-03T13:48:50.427Z,82.79
2022-12-03T13:53:52.106Z,83.25
2022-12-03T13:58:54.994Z,83.71
2022-12-03T14:03:56.223Z,83.89
2022-12-03T14:08:57.327Z,84.16
2022-12-03T14:13:58.336Z,84.14
2022-12-03T14:18:59.418Z,84.34
2022-12-03T14:24:00.522Z,84.80
2022-12-03T14:29:05.857Z,85.14
2022-12-03T14:34:09.700Z,85.00
2022-12-03T14:39:10.871Z,84.85
2022-12-03T14:44:12.016Z,85.14
2022-12-03T14:49:13.903Z,85.06
2022-12-03T14:54:15.103Z,85.12
2022-12-03T14:59:16.089Z,85.14
2022-12-03T15:04:17.406Z,85.10
2022-12-03T15:09:18.925Z,85.31
2022-12-03T15:14:20.040Z,85.48
2022-12-03T15:19:21.081Z,85.77
2022-12-03T15:24:22.137Z,85.95
2022-12-03T15:29:23.753Z,86.35
2022-12-03T15:34:24.814Z,86.42
2022-12-03T15:39:26.333Z,86.73
2022-12-03T15:44:27.395Z,86.89
2022-12-03T15:49:28.401Z,87.15
2022-12-03T15:54:29.792Z,87.24
2022-12-03T15:59:31.122Z,87.14
2022-12-03T16:04:32.177Z,87.29
2022-12-03T16:09:33.543Z,87.13
2022-12-03T16:14:34.960Z,87.26
2022-12-03T16:19:36.394Z,87.36
2022-12-03T16:24:37.776Z,87.55
2022-12-03T16:29:40.135Z,87.51
2022-12-03T16:34:41.697Z,87.67
2022-12-03T16:39:42.883Z,87.85
2022-12-03T16:45:04.693Z,87.94
2022-12-03T16:50:09.133Z,88.04
2022-12-03T16:55:10.897Z,88.28
2022-12-03T17:00:13.283Z,88.50
2022-12-03T17:05:14.345Z,88.57
2022-12-03T17:10:15.438Z,88.59
2022-12-03T17:15:16.608Z,88.67
2022-12-03T17:20:18.123Z,88.88
2022-12-03T17:25:19.362Z,89.03
2022-12-03T17:30:20.855Z,89.37
2022-12-03T17:35:22.022Z,89.62
2022-12-03T17:40:23.184Z,89.67
2022-12-03T17:45:24.408Z,89.60
2022-12-03T17:50:27.083Z,89.92
2022-12-03T17:55:38.376Z,90.08
2022-12-03T18:00:44.675Z,90.21
2022-12-03T18:05:45.774Z,90.53
2022-12-03T18:10:47.870Z,90.58
2022-12-03T18:15:48.982Z,90.79
2022-12-03T18:20:52.404Z,90.81
2022-12-03T18:25:54.448Z,91.13
2022-12-03T18:30:55.514Z,91.32
2022-12-03T18:35:57.449Z,91.13
2022-12-03T18:40:59.130Z,91.03
2022-12-03T18:46:00.715Z,91.16
2022-12-03T18:51:04.484Z,91.25
2022-12-03T18:56:06.327Z,91.38
2022-12-03T19:01:15.112Z,91.88
2022-12-03T19:06:20.423Z,92.15
2022-12-03T19:11:21.552Z,92.24
2022-12-03T19:16:22.847Z,92.41
2022-12-03T19:21:24.049Z,92.61
2022-12-03T19:26:26.588Z,92.77
2022-12-03T19:31:29.929Z,92.77
2022-12-03T19:36:31.400Z,92.64
2022-12-03T19:41:32.639Z,92.63
2022-12-03T19:46:34.030Z,92.66
2022-12-03T19:51:35.899Z,92.45
2022-12-03T19:56:37.387Z,92.50
2022-12-03T20:01:39.948Z,92.78
2022-12-03T20:06:41.250Z,92.80
2022-12-03T20:11:43.826Z,92.99
2022-12-03T20:16:46.161Z,92.94
2022-12-03T20:21:47.247Z,92.94
2022-12-03T20:26:48.272Z,93.01
2022-12-03T20:31:49.498Z,92.86
2022-12-03T20:36:50.789Z,93.05
2022-12-03T20:41:51.755Z,93.10
2022-12-03T20:46:53.301Z,93.06
2022-12-03T20:51:54.383Z,93.02
2022-12-03T20:56:55.865Z,93.06
2022-12-03T21:01:57.076Z,93.16
2022-12-03T21:06:58.475Z,93.09
2022-12-03T21:11:59.491Z,93.26
2022-12-03T21:17:09.613Z,93.48
2022-12-03T21:22:11.014Z,93.58
2022-12-03T21:27:14.615Z,93.66
2022-12-03T21:32:19.475Z,93.41
2022-12-03T21:37:20.500Z,93.04
2022-12-03T21:42:35.629Z,93.08
2022-12-03T21:47:38.135Z,93.06
2022-12-03T21:52:39.839Z,93.14
2022-12-03T21:57:40.872Z,93.22
2022-12-03T22:02:41.930Z,93.56
2022-12-03T22:07:43.305Z,93.83
2022-12-03T22:12:44.394Z,93.94
2022-12-03T22:17:46.084Z,94.05
2022-12-03T22:22:47.248Z,94.22
2022-12-03T22:27:48.725Z,94.27
2022-12-03T22:32:49.871Z,94.29
2022-12-03T22:37:50.960Z,94.16
2022-12-03T22:42:52.003Z,94.07
2022-12-03T22:47:53.062Z,94.06
2022-12-03T22:52:54.104Z,94.11
2022-12-03T22:57:55.311Z,94.11
2022-12-03T23:02:56.658Z,94.25
2022-12-03T23:07:58.253Z,94.54
2022-12-03T23:12:59.690Z,94.56
2022-12-03T23:18:00.924Z,94.70
2022-12-03T23:23:02.260Z,94.80
2022-12-03T23:28:04.495Z,94.92
2022-12-03T23:33:05.935Z,95.05
2022-12-03T23:38:07.075Z,95.30
2022-12-03T23:43:08.092Z,95.34
2022-12-03T23:48:09.406Z,95.55
2022-12-03T23:53:10.483Z,95.95
2022-12-03T23:58:11.527Z,96.10
